Arch, New Mexico
Current Conditions -  °F | °C
As of 12:58 PM on Saturday 25 Oct 2014 (Local Time) from KCVS Reporting Station
Clear Clear  
Wind Chill: 83°   Ceiling: Unl
Heat Index: 83°   Visibility: 10mi
Dew Point: 45°   Wind: 10mph
Humidity: 26%   Direction: 200°SSW
Pressure: 30.18"   Gusts: NA
Location:  34.1669°N, 103.266°W
Report Text: KCVS 251858Z AUTO 20009KT 10SM CLR 28/07 A3018 RMK AO2 SLP166 T02830073 $
Loading
Personal Weather Stations






























Interactive Weather Map
Tropical Storm Tracking
New forecast layout! Learn more

10-Day Weather Forecast

Advertisements
Track Severe Weather on mobile